sensor_id;sensor_type;location;lat;lon;timestamp;P1;durP1;ratioP1;P2;durP2;ratioP2
1414;SDS011;702;49.466;11.086;2023-04-25T00:01:31;2.60;;;2.33;;
1414;SDS011;702;49.466;11.086;2023-04-25T00:04:01;4.50;;;2.63;;
1414;SDS011;702;49.466;11.086;2023-04-25T00:06:29;4.57;;;2.90;;
1414;SDS011;702;49.466;11.086;2023-04-25T00:09:01;3.63;;;3.03;;
1414;SDS011;702;49.466;11.086;2023-04-25T00:11:29;4.10;;;2.90;;
1414;SDS011;702;49.466;11.086;2023-04-25T00:13:57;4.00;;;2.90;;
1414;SDS011;702;49.466;11.086;2023-04-25T00:16:27;3.67;;;2.80;;
1414;SDS011;702;49.466;11.086;2023-04-25T00:18:58;3.03;;;2.70;;
1414;SDS011;702;49.466;11.086;2023-04-25T00:21:26;4.00;;;3.00;;
1414;SDS011;702;49.466;11.086;2023-04-25T00:23:54;2.50;;;2.30;;
1414;SDS011;702;49.466;11.086;2023-04-25T00:26:21;3.57;;;2.43;;
1414;SDS011;702;49.466;11.086;2023-04-25T00:28:49;4.30;;;3.27;;
1414;SDS011;702;49.466;11.086;2023-04-25T00:31:17;2.70;;;2.20;;
1414;SDS011;702;49.466;11.086;2023-04-25T00:33:45;2.40;;;2.03;;
1414;SDS011;702;49.466;11.086;2023-04-25T00:36:12;2.73;;;2.53;;
1414;SDS011;702;49.466;11.086;2023-04-25T00:38:40;3.13;;;2.83;;
1414;SDS011;702;49.466;11.086;2023-04-25T00:41:08;5.00;;;2.73;;
1414;SDS011;702;49.466;11.086;2023-04-25T00:43:36;3.10;;;2.60;;
1414;SDS011;702;49.466;11.086;2023-04-25T00:46:04;2.53;;;2.10;;
1414;SDS011;702;49.466;11.086;2023-04-25T00:48:32;2.73;;;2.37;;
1414;SDS011;702;49.466;11.086;2023-04-25T00:51:00;4.07;;;2.83;;
1414;SDS011;702;49.466;11.086;2023-04-25T00:53:29;3.07;;;2.40;;
1414;SDS011;702;49.466;11.086;2023-04-25T00:55:58;3.43;;;2.70;;
1414;SDS011;702;49.466;11.086;2023-04-25T00:58:25;3.37;;;2.70;;
1414;SDS011;702;49.466;11.086;2023-04-25T01:00:53;3.03;;;2.13;;
1414;SDS011;702;49.466;11.086;2023-04-25T01:03:21;3.97;;;2.87;;
1414;SDS011;702;49.466;11.086;2023-04-25T01:05:52;3.87;;;2.30;;
1414;SDS011;702;49.466;11.086;2023-04-25T01:08:20;2.93;;;2.67;;
1414;SDS011;702;49.466;11.086;2023-04-25T01:10:51;3.03;;;2.43;;
1414;SDS011;702;49.466;11.086;2023-04-25T01:13:18;3.27;;;2.47;;
1414;SDS011;702;49.466;11.086;2023-04-25T01:15:46;4.40;;;2.30;;
1414;SDS011;702;49.466;11.086;2023-04-25T01:18:14;2.73;;;1.73;;
1414;SDS011;702;49.466;11.086;2023-04-25T01:20:41;2.43;;;2.13;;
1414;SDS011;702;49.466;11.086;2023-04-25T01:23:11;1.97;;;1.77;;
1414;SDS011;702;49.466;11.086;2023-04-25T01:25:39;3.27;;;2.00;;
1414;SDS011;702;49.466;11.086;2023-04-25T01:28:07;1.80;;;1.57;;
1414;SDS011;702;49.466;11.086;2023-04-25T01:30:34;2.43;;;1.90;;
1414;SDS011;702;49.466;11.086;2023-04-25T01:33:02;3.90;;;2.47;;
1414;SDS011;702;49.466;11.086;2023-04-25T01:35:31;3.73;;;2.43;;
1414;SDS011;702;49.466;11.086;2023-04-25T01:37:58;2.87;;;1.67;;
1414;SDS011;702;49.466;11.086;2023-04-25T01:40:27;6.40;;;2.67;;
1414;SDS011;702;49.466;11.086;2023-04-25T01:42:54;2.20;;;1.87;;
1414;SDS011;702;49.466;11.086;2023-04-25T01:45:21;2.07;;;1.80;;
1414;SDS011;702;49.466;11.086;2023-04-25T01:47:49;2.63;;;2.13;;
1414;SDS011;702;49.466;11.086;2023-04-25T01:50:16;2.73;;;2.20;;
1414;SDS011;702;49.466;11.086;2023-04-25T01:52:45;2.07;;;1.80;;
1414;SDS011;702;49.466;11.086;2023-04-25T01:55:12;3.30;;;2.47;;
1414;SDS011;702;49.466;11.086;2023-04-25T01:57:41;2.47;;;2.07;;
1414;SDS011;702;49.466;11.086;2023-04-25T02:00:09;1.93;;;1.80;;
1414;SDS011;702;49.466;11.086;2023-04-25T02:02:38;3.17;;;2.30;;
1414;SDS011;702;49.466;11.086;2023-04-25T02:05:06;2.83;;;2.47;;
1414;SDS011;702;49.466;11.086;2023-04-25T02:07:34;7.70;;;2.90;;
1414;SDS011;702;49.466;11.086;2023-04-25T02:10:01;2.93;;;2.23;;
1414;SDS011;702;49.466;11.086;2023-04-25T02:12:28;2.63;;;2.23;;
1414;SDS011;702;49.466;11.086;2023-04-25T02:14:58;2.70;;;2.20;;
1414;SDS011;702;49.466;11.086;2023-04-25T02:17:25;2.50;;;2.23;;
1414;SDS011;702;49.466;11.086;2023-04-25T02:19:53;2.60;;;2.13;;
1414;SDS011;702;49.466;11.086;2023-04-25T02:22:20;3.83;;;2.80;;
1414;SDS011;702;49.466;11.086;2023-04-25T02:24:48;6.20;;;2.10;;
1414;SDS011;702;49.466;11.086;2023-04-25T02:27:15;2.60;;;2.40;;
1414;SDS011;702;49.466;11.086;2023-04-25T02:29:42;2.60;;;2.37;;
1414;SDS011;702;49.466;11.086;2023-04-25T02:32:11;2.43;;;2.23;;
1414;SDS011;702;49.466;11.086;2023-04-25T02:34:38;2.90;;;2.13;;
1414;SDS011;702;49.466;11.086;2023-04-25T02:37:05;3.67;;;2.67;;
1414;SDS011;702;49.466;11.086;2023-04-25T02:39:32;3.40;;;2.30;;
1414;SDS011;702;49.466;11.086;2023-04-25T02:41:59;4.37;;;2.90;;
1414;SDS011;702;49.466;11.086;2023-04-25T02:44:27;3.10;;;2.80;;
1414;SDS011;702;49.466;11.086;2023-04-25T02:46:55;5.63;;;3.40;;
1414;SDS011;702;49.466;11.086;2023-04-25T02:49:23;3.80;;;2.60;;
1414;SDS011;702;49.466;11.086;2023-04-25T02:51:50;4.90;;;3.00;;
1414;SDS011;702;49.466;11.086;2023-04-25T02:54:18;4.90;;;3.13;;
1414;SDS011;702;49.466;11.086;2023-04-25T02:56:45;4.00;;;3.07;;
1414;SDS011;702;49.466;11.086;2023-04-25T02:59:12;5.67;;;4.03;;
1414;SDS011;702;49.466;11.086;2023-04-25T03:01:39;4.10;;;2.77;;
1414;SDS011;702;49.466;11.086;2023-04-25T03:04:06;7.63;;;3.33;;
1414;SDS011;702;49.466;11.086;2023-04-25T03:06:35;5.37;;;3.37;;
1414;SDS011;702;49.466;11.086;2023-04-25T03:09:03;4.43;;;3.00;;
1414;SDS011;702;49.466;11.086;2023-04-25T03:11:30;4.23;;;3.77;;
1414;SDS011;702;49.466;11.086;2023-04-25T03:13:57;7.43;;;4.10;;
1414;SDS011;702;49.466;11.086;2023-04-25T03:16:24;4.13;;;3.70;;
1414;SDS011;702;49.466;11.086;2023-04-25T03:18:53;8.27;;;4.07;;
1414;SDS011;702;49.466;11.086;2023-04-25T03:21:20;6.00;;;4.10;;
1414;SDS011;702;49.466;11.086;2023-04-25T03:23:49;4.00;;;3.60;;
1414;SDS011;702;49.466;11.086;2023-04-25T03:26:16;5.60;;;3.53;;
1414;SDS011;702;49.466;11.086;2023-04-25T03:28:43;6.20;;;4.57;;
1414;SDS011;702;49.466;11.086;2023-04-25T03:31:10;5.27;;;4.00;;
1414;SDS011;702;49.466;11.086;2023-04-25T03:33:38;6.40;;;4.20;;
1414;SDS011;702;49.466;11.086;2023-04-25T03:36:05;6.10;;;4.37;;
1414;SDS011;702;49.466;11.086;2023-04-25T03:38:34;5.23;;;4.00;;
1414;SDS011;702;49.466;11.086;2023-04-25T03:41:03;6.43;;;4.20;;
1414;SDS011;702;49.466;11.086;2023-04-25T03:43:30;5.23;;;3.27;;
1414;SDS011;702;49.466;11.086;2023-04-25T03:45:57;4.83;;;3.83;;
1414;SDS011;702;49.466;11.086;2023-04-25T03:48:25;5.30;;;4.00;;
1414;SDS011;702;49.466;11.086;2023-04-25T03:50:52;5.80;;;4.00;;
1414;SDS011;702;49.466;11.086;2023-04-25T03:53:20;4.50;;;3.70;;
1414;SDS011;702;49.466;11.086;2023-04-25T03:55:47;4.60;;;3.97;;
1414;SDS011;702;49.466;11.086;2023-04-25T03:58:16;6.57;;;4.13;;
1414;SDS011;702;49.466;11.086;2023-04-25T04:00:43;4.57;;;3.10;;
1414;SDS011;702;49.466;11.086;2023-04-25T04:03:10;4.63;;;3.80;;
1414;SDS011;702;49.466;11.086;2023-04-25T04:05:37;4.40;;;3.80;;
1414;SDS011;702;49.466;11.086;2023-04-25T04:08:05;5.97;;;4.40;;
1414;SDS011;702;49.466;11.086;2023-04-25T04:10:33;6.13;;;4.03;;
1414;SDS011;702;49.466;11.086;2023-04-25T04:13:00;5.13;;;3.67;;
1414;SDS011;702;49.466;11.086;2023-04-25T04:15:28;5.43;;;4.30;;
1414;SDS011;702;49.466;11.086;2023-04-25T04:17:57;4.77;;;3.43;;
1414;SDS011;702;49.466;11.086;2023-04-25T04:20:27;6.40;;;4.27;;
1414;SDS011;702;49.466;11.086;2023-04-25T04:22:56;4.70;;;4.00;;
1414;SDS011;702;49.466;11.086;2023-04-25T04:25:23;6.57;;;4.67;;
1414;SDS011;702;49.466;11.086;2023-04-25T04:27:51;4.47;;;4.00;;
1414;SDS011;702;49.466;11.086;2023-04-25T04:30:20;5.23;;;3.70;;
1414;SDS011;702;49.466;11.086;2023-04-25T04:32:51;4.17;;;3.43;;
1414;SDS011;702;49.466;11.086;2023-04-25T04:35:19;4.87;;;3.70;;
1414;SDS011;702;49.466;11.086;2023-04-25T04:37:47;6.27;;;4.03;;
1414;SDS011;702;49.466;11.086;2023-04-25T04:40:14;6.33;;;4.07;;
1414;SDS011;702;49.466;11.086;2023-04-25T04:42:42;5.53;;;4.10;;
1414;SDS011;702;49.466;11.086;2023-04-25T04:45:10;6.90;;;4.37;;
1414;SDS011;702;49.466;11.086;2023-04-25T04:47:38;5.70;;;4.70;;
1414;SDS011;702;49.466;11.086;2023-04-25T04:50:07;4.77;;;4.13;;
1414;SDS011;702;49.466;11.086;2023-04-25T04:52:36;6.80;;;4.30;;
1414;SDS011;702;49.466;11.086;2023-04-25T04:55:04;5.63;;;4.23;;
1414;SDS011;702;49.466;11.086;2023-04-25T04:57:33;5.30;;;3.80;;
1414;SDS011;702;49.466;11.086;2023-04-25T05:00:01;4.43;;;3.80;;
1414;SDS011;702;49.466;11.086;2023-04-25T05:02:35;5.37;;;4.53;;
1414;SDS011;702;49.466;11.086;2023-04-25T05:05:04;8.67;;;5.07;;
1414;SDS011;702;49.466;11.086;2023-04-25T05:07:33;6.20;;;4.27;;
1414;SDS011;702;49.466;11.086;2023-04-25T05:10:01;4.83;;;3.70;;
1414;SDS011;702;49.466;11.086;2023-04-25T05:12:29;5.43;;;4.47;;
1414;SDS011;702;49.466;11.086;2023-04-25T05:14:56;5.13;;;4.03;;
1414;SDS011;702;49.466;11.086;2023-04-25T05:17:26;4.90;;;4.20;;
1414;SDS011;702;49.466;11.086;2023-04-25T05:19:53;5.90;;;4.50;;
1414;SDS011;702;49.466;11.086;2023-04-25T05:22:22;4.73;;;3.97;;
1414;SDS011;702;49.466;11.086;2023-04-25T05:24:49;4.30;;;3.13;;
1414;SDS011;702;49.466;11.086;2023-04-25T05:27:17;4.50;;;3.53;;
1414;SDS011;702;49.466;11.086;2023-04-25T05:29:46;5.60;;;4.50;;
1414;SDS011;702;49.466;11.086;2023-04-25T05:32:13;4.73;;;3.27;;
1414;SDS011;702;49.466;11.086;2023-04-25T05:34:40;5.07;;;3.60;;
1414;SDS011;702;49.466;11.086;2023-04-25T05:37:08;5.10;;;3.90;;
1414;SDS011;702;49.466;11.086;2023-04-25T05:39:36;4.40;;;3.37;;
1414;SDS011;702;49.466;11.086;2023-04-25T05:42:04;4.80;;;3.97;;
1414;SDS011;702;49.466;11.086;2023-04-25T05:44:31;4.30;;;3.40;;
1414;SDS011;702;49.466;11.086;2023-04-25T05:46:58;4.43;;;3.57;;
1414;SDS011;702;49.466;11.086;2023-04-25T05:49:25;5.00;;;3.57;;
1414;SDS011;702;49.466;11.086;2023-04-25T05:51:52;4.17;;;3.50;;
1414;SDS011;702;49.466;11.086;2023-04-25T05:54:19;6.23;;;3.90;;
1414;SDS011;702;49.466;11.086;2023-04-25T05:56:49;5.37;;;4.03;;
1414;SDS011;702;49.466;11.086;2023-04-25T05:59:16;3.87;;;3.00;;
1414;SDS011;702;49.466;11.086;2023-04-25T06:01:43;5.70;;;4.00;;
1414;SDS011;702;49.466;11.086;2023-04-25T06:04:10;4.70;;;3.57;;
1414;SDS011;702;49.466;11.086;2023-04-25T06:06:37;3.70;;;3.23;;
1414;SDS011;702;49.466;11.086;2023-04-25T06:09:05;4.83;;;3.30;;
1414;SDS011;702;49.466;11.086;2023-04-25T06:11:32;4.70;;;3.40;;
1414;SDS011;702;49.466;11.086;2023-04-25T06:14:00;4.43;;;3.60;;
1414;SDS011;702;49.466;11.086;2023-04-25T06:16:28;7.07;;;4.60;;
1414;SDS011;702;49.466;11.086;2023-04-25T06:18:55;6.00;;;4.40;;
1414;SDS011;702;49.466;11.086;2023-04-25T06:21:22;3.87;;;3.17;;
1414;SDS011;702;49.466;11.086;2023-04-25T06:23:49;4.37;;;3.57;;
1414;SDS011;702;49.466;11.086;2023-04-25T06:26:17;4.73;;;4.10;;
1414;SDS011;702;49.466;11.086;2023-04-25T06:28:44;5.53;;;3.87;;
1414;SDS011;702;49.466;11.086;2023-04-25T06:31:13;4.60;;;3.03;;
1414;SDS011;702;49.466;11.086;2023-04-25T06:33:40;5.03;;;3.43;;
1414;SDS011;702;49.466;11.086;2023-04-25T06:36:07;6.30;;;3.90;;
1414;SDS011;702;49.466;11.086;2023-04-25T06:38:36;5.17;;;3.47;;
1414;SDS011;702;49.466;11.086;2023-04-25T06:41:03;6.23;;;4.50;;
1414;SDS011;702;49.466;11.086;2023-04-25T06:43:30;5.20;;;3.53;;
1414;SDS011;702;49.466;11.086;2023-04-25T06:45:58;7.80;;;4.77;;
1414;SDS011;702;49.466;11.086;2023-04-25T06:48:27;6.87;;;4.50;;
1414;SDS011;702;49.466;11.086;2023-04-25T06:50:55;7.20;;;4.60;;
1414;SDS011;702;49.466;11.086;2023-04-25T06:53:22;4.13;;;3.37;;
1414;SDS011;702;49.466;11.086;2023-04-25T06:55:50;5.50;;;4.33;;
1414;SDS011;702;49.466;11.086;2023-04-25T06:58:17;8.30;;;4.43;;
1414;SDS011;702;49.466;11.086;2023-04-25T07:00:44;5.03;;;3.80;;
1414;SDS011;702;49.466;11.086;2023-04-25T07:03:11;4.47;;;3.97;;
1414;SDS011;702;49.466;11.086;2023-04-25T07:05:40;9.60;;;4.57;;
1414;SDS011;702;49.466;11.086;2023-04-25T07:08:07;4.37;;;3.13;;
1414;SDS011;702;49.466;11.086;2023-04-25T07:10:34;6.30;;;3.80;;
1414;SDS011;702;49.466;11.086;2023-04-25T07:13:01;3.77;;;3.40;;
1414;SDS011;702;49.466;11.086;2023-04-25T07:15:29;4.37;;;3.83;;
1414;SDS011;702;49.466;11.086;2023-04-25T07:17:56;3.80;;;3.40;;
1414;SDS011;702;49.466;11.086;2023-04-25T07:20:24;5.37;;;4.47;;
1414;SDS011;702;49.466;11.086;2023-04-25T07:22:54;4.33;;;3.80;;
1414;SDS011;702;49.466;11.086;2023-04-25T07:25:21;3.13;;;2.60;;
1414;SDS011;702;49.466;11.086;2023-04-25T07:27:49;4.50;;;3.90;;
1414;SDS011;702;49.466;11.086;2023-04-25T07:30:16;4.77;;;2.53;;
1414;SDS011;702;49.466;11.086;2023-04-25T07:32:43;4.10;;;2.57;;
1414;SDS011;702;49.466;11.086;2023-04-25T07:35:10;3.63;;;2.60;;
1414;SDS011;702;49.466;11.086;2023-04-25T07:37:38;4.10;;;2.73;;
1414;SDS011;702;49.466;11.086;2023-04-25T07:40:07;3.93;;;2.90;;
1414;SDS011;702;49.466;11.086;2023-04-25T07:42:35;3.87;;;2.53;;
1414;SDS011;702;49.466;11.086;2023-04-25T07:45:02;4.33;;;3.07;;
1414;SDS011;702;49.466;11.086;2023-04-25T07:47:30;4.50;;;3.23;;
1414;SDS011;702;49.466;11.086;2023-04-25T07:49:57;3.47;;;2.40;;
1414;SDS011;702;49.466;11.086;2023-04-25T07:52:26;4.00;;;2.60;;
1414;SDS011;702;49.466;11.086;2023-04-25T07:54:53;4.33;;;2.80;;
1414;SDS011;702;49.466;11.086;2023-04-25T07:57:21;4.13;;;3.00;;
1414;SDS011;702;49.466;11.086;2023-04-25T07:59:49;2.80;;;2.60;;
1414;SDS011;702;49.466;11.086;2023-04-25T08:02:16;3.90;;;2.70;;
1414;SDS011;702;49.466;11.086;2023-04-25T08:04:44;3.93;;;2.67;;
1414;SDS011;702;49.466;11.086;2023-04-25T08:07:11;3.03;;;2.20;;
1414;SDS011;702;49.466;11.086;2023-04-25T08:09:39;4.00;;;2.70;;
1414;SDS011;702;49.466;11.086;2023-04-25T08:12:06;4.13;;;2.60;;
1414;SDS011;702;49.466;11.086;2023-04-25T08:14:35;2.33;;;2.10;;
1414;SDS011;702;49.466;11.086;2023-04-25T08:17:02;5.23;;;2.70;;
1414;SDS011;702;49.466;11.086;2023-04-25T08:19:30;4.23;;;3.00;;
1414;SDS011;702;49.466;11.086;2023-04-25T08:21:57;4.23;;;2.20;;
1414;SDS011;702;49.466;11.086;2023-04-25T08:24:24;3.03;;;2.73;;
1414;SDS011;702;49.466;11.086;2023-04-25T08:26:52;4.20;;;2.53;;
1414;SDS011;702;49.466;11.086;2023-04-25T08:29:19;2.67;;;2.17;;
1414;SDS011;702;49.466;11.086;2023-04-25T08:31:49;3.63;;;2.47;;
1414;SDS011;702;49.466;11.086;2023-04-25T08:34:18;3.90;;;2.73;;
1414;SDS011;702;49.466;11.086;2023-04-25T08:36:45;2.07;;;1.87;;
1414;SDS011;702;49.466;11.086;2023-04-25T08:39:12;3.00;;;2.23;;
1414;SDS011;702;49.466;11.086;2023-04-25T08:41:40;5.13;;;3.17;;
1414;SDS011;702;49.466;11.086;2023-04-25T08:44:08;2.57;;;2.07;;
1414;SDS011;702;49.466;11.086;2023-04-25T08:46:37;2.60;;;2.40;;
1414;SDS011;702;49.466;11.086;2023-04-25T08:49:07;3.57;;;2.90;;
1414;SDS011;702;49.466;11.086;2023-04-25T08:51:36;4.33;;;2.50;;
1414;SDS011;702;49.466;11.086;2023-04-25T08:54:11;2.93;;;2.50;;
1414;SDS011;702;49.466;11.086;2023-04-25T08:56:41;3.17;;;2.87;;
1414;SDS011;702;49.466;11.086;2023-04-25T08:59:12;2.90;;;2.50;;
1414;SDS011;702;49.466;11.086;2023-04-25T09:01:40;3.00;;;2.63;;
1414;SDS011;702;49.466;11.086;2023-04-25T09:04:09;3.40;;;2.57;;
1414;SDS011;702;49.466;11.086;2023-04-25T09:06:38;3.63;;;2.90;;
1414;SDS011;702;49.466;11.086;2023-04-25T09:09:05;2.97;;;2.40;;
1414;SDS011;702;49.466;11.086;2023-04-25T09:11:34;3.23;;;2.93;;
1414;SDS011;702;49.466;11.086;2023-04-25T09:14:12;3.53;;;2.60;;
1414;SDS011;702;49.466;11.086;2023-04-25T09:17:00;3.57;;;3.27;;
1414;SDS011;702;49.466;11.086;2023-04-25T09:19:31;4.23;;;3.40;;
1414;SDS011;702;49.466;11.086;2023-04-25T09:22:01;4.10;;;2.80;;
1414;SDS011;702;49.466;11.086;2023-04-25T09:24:31;5.17;;;3.90;;
1414;SDS011;702;49.466;11.086;2023-04-25T09:27:03;3.63;;;3.27;;
1414;SDS011;702;49.466;11.086;2023-04-25T09:29:31;4.00;;;3.00;;
1414;SDS011;702;49.466;11.086;2023-04-25T09:32:16;3.03;;;2.73;;
1414;SDS011;702;49.466;11.086;2023-04-25T09:34:47;5.03;;;4.10;;
1414;SDS011;702;49.466;11.086;2023-04-25T09:37:17;5.27;;;3.50;;
1414;SDS011;702;49.466;11.086;2023-04-25T09:39:46;4.57;;;4.10;;
1414;SDS011;702;49.466;11.086;2023-04-25T09:42:15;2.70;;;2.43;;
1414;SDS011;702;49.466;11.086;2023-04-25T09:44:43;3.83;;;3.43;;
1414;SDS011;702;49.466;11.086;2023-04-25T09:47:12;4.17;;;3.17;;
1414;SDS011;702;49.466;11.086;2023-04-25T09:49:42;4.30;;;3.70;;
1414;SDS011;702;49.466;11.086;2023-04-25T09:52:14;4.93;;;3.50;;
1414;SDS011;702;49.466;11.086;2023-04-25T09:54:43;2.33;;;2.10;;
1414;SDS011;702;49.466;11.086;2023-04-25T09:57:13;4.10;;;3.10;;
1414;SDS011;702;49.466;11.086;2023-04-25T09:59:45;2.67;;;2.47;;
1414;SDS011;702;49.466;11.086;2023-04-25T10:02:14;3.17;;;2.60;;
1414;SDS011;702;49.466;11.086;2023-04-25T10:04:45;4.10;;;2.80;;
1414;SDS011;702;49.466;11.086;2023-04-25T10:07:19;3.00;;;2.70;;
1414;SDS011;702;49.466;11.086;2023-04-25T10:09:48;3.30;;;2.73;;
1414;SDS011;702;49.466;11.086;2023-04-25T10:12:16;4.40;;;2.77;;
1414;SDS011;702;49.466;11.086;2023-04-25T10:14:44;2.70;;;2.50;;
1414;SDS011;702;49.466;11.086;2023-04-25T10:17:12;3.40;;;3.10;;
1414;SDS011;702;49.466;11.086;2023-04-25T10:19:40;3.67;;;2.80;;
1414;SDS011;702;49.466;11.086;2023-04-25T10:22:08;3.00;;;2.37;;
1414;SDS011;702;49.466;11.086;2023-04-25T10:24:42;1.90;;;1.40;;
1414;SDS011;702;49.466;11.086;2023-04-25T10:27:11;2.27;;;1.73;;
1414;SDS011;702;49.466;11.086;2023-04-25T10:29:39;2.50;;;1.83;;
1414;SDS011;702;49.466;11.086;2023-04-25T10:32:08;4.47;;;1.52;;
1414;SDS011;702;49.466;11.086;2023-04-25T10:34:40;1.93;;;1.43;;
1414;SDS011;702;49.466;11.086;2023-04-25T10:37:08;2.50;;;2.30;;
1414;SDS011;702;49.466;11.086;2023-04-25T10:39:38;2.13;;;1.73;;
1414;SDS011;702;49.466;11.086;2023-04-25T10:42:08;2.03;;;1.40;;
1414;SDS011;702;49.466;11.086;2023-04-25T10:44:36;3.80;;;2.33;;
1414;SDS011;702;49.466;11.086;2023-04-25T10:47:06;2.03;;;1.80;;
1414;SDS011;702;49.466;11.086;2023-04-25T10:49:36;1.67;;;1.50;;
1414;SDS011;702;49.466;11.086;2023-04-25T10:52:14;1.63;;;1.23;;
1414;SDS011;702;49.466;11.086;2023-04-25T10:54:52;1.60;;;1.40;;
1414;SDS011;702;49.466;11.086;2023-04-25T10:57:29;3.77;;;1.73;;
1414;SDS011;702;49.466;11.086;2023-04-25T11:00:05;1.73;;;1.43;;
1414;SDS011;702;49.466;11.086;2023-04-25T11:02:40;2.23;;;1.80;;
1414;SDS011;702;49.466;11.086;2023-04-25T11:05:10;1.70;;;1.13;;
1414;SDS011;702;49.466;11.086;2023-04-25T11:07:46;2.40;;;1.73;;
1414;SDS011;702;49.466;11.086;2023-04-25T11:10:17;1.73;;;1.27;;
1414;SDS011;702;49.466;11.086;2023-04-25T11:12:46;2.60;;;1.50;;
1414;SDS011;702;49.466;11.086;2023-04-25T11:15:17;2.23;;;2.00;;
1414;SDS011;702;49.466;11.086;2023-04-25T11:17:44;1.77;;;1.23;;
1414;SDS011;702;49.466;11.086;2023-04-25T11:20:12;1.50;;;1.23;;
1414;SDS011;702;49.466;11.086;2023-04-25T11:22:40;2.17;;;1.47;;
1414;SDS011;702;49.466;11.086;2023-04-25T11:25:09;1.30;;;1.20;;
1414;SDS011;702;49.466;11.086;2023-04-25T11:27:38;2.27;;;1.27;;
1414;SDS011;702;49.466;11.086;2023-04-25T11:30:18;1.60;;;1.17;;
1414;SDS011;702;49.466;11.086;2023-04-25T11:32:46;1.03;;;0.90;;
1414;SDS011;702;49.466;11.086;2023-04-25T11:35:14;1.63;;;1.50;;
1414;SDS011;702;49.466;11.086;2023-04-25T11:37:41;1.77;;;1.23;;
1414;SDS011;702;49.466;11.086;2023-04-25T11:40:10;1.40;;;1.00;;
1414;SDS011;702;49.466;11.086;2023-04-25T11:42:38;1.50;;;1.40;;
1414;SDS011;702;49.466;11.086;2023-04-25T11:45:11;1.40;;;1.30;;
1414;SDS011;702;49.466;11.086;2023-04-25T11:47:39;1.47;;;1.23;;
1414;SDS011;702;49.466;11.086;2023-04-25T11:50:07;2.30;;;1.60;;
1414;SDS011;702;49.466;11.086;2023-04-25T11:52:37;1.50;;;1.37;;
1414;SDS011;702;49.466;11.086;2023-04-25T11:55:06;1.33;;;0.93;;
1414;SDS011;702;49.466;11.086;2023-04-25T11:57:38;1.13;;;1.03;;
1414;SDS011;702;49.466;11.086;2023-04-25T12:00:08;1.57;;;1.00;;
1414;SDS011;702;49.466;11.086;2023-04-25T12:02:43;2.30;;;0.97;;
1414;SDS011;702;49.466;11.086;2023-04-25T12:05:12;0.73;;;0.73;;
1414;SDS011;702;49.466;11.086;2023-04-25T12:07:41;0.80;;;0.80;;
1414;SDS011;702;49.466;11.086;2023-04-25T12:10:10;1.90;;;1.50;;
1414;SDS011;702;49.466;11.086;2023-04-25T12:12:41;1.33;;;1.17;;
1414;SDS011;702;49.466;11.086;2023-04-25T12:15:12;1.57;;;0.87;;
1414;SDS011;702;49.466;11.086;2023-04-25T12:17:44;1.10;;;1.00;;
1414;SDS011;702;49.466;11.086;2023-04-25T12:20:13;1.10;;;1.00;;
1414;SDS011;702;49.466;11.086;2023-04-25T12:22:42;1.23;;;1.13;;
1414;SDS011;702;49.466;11.086;2023-04-25T12:25:11;2.30;;;0.93;;
1414;SDS011;702;49.466;11.086;2023-04-25T12:27:40;0.80;;;0.60;;
1414;SDS011;702;49.466;11.086;2023-04-25T12:30:09;1.77;;;1.00;;
1414;SDS011;702;49.466;11.086;2023-04-25T12:32:39;1.17;;;1.00;;
1414;SDS011;702;49.466;11.086;2023-04-25T12:35:06;1.30;;;1.20;;
1414;SDS011;702;49.466;11.086;2023-04-25T12:37:35;1.10;;;1.00;;
1414;SDS011;702;49.466;11.086;2023-04-25T12:40:02;1.03;;;0.90;;
1414;SDS011;702;49.466;11.086;2023-04-25T12:42:32;1.30;;;0.93;;
1414;SDS011;702;49.466;11.086;2023-04-25T12:44:59;1.20;;;1.10;;
1414;SDS011;702;49.466;11.086;2023-04-25T12:47:28;1.40;;;1.03;;
1414;SDS011;702;49.466;11.086;2023-04-25T12:49:55;0.80;;;0.80;;
1414;SDS011;702;49.466;11.086;2023-04-25T12:52:22;1.33;;;1.10;;
1414;SDS011;702;49.466;11.086;2023-04-25T12:54:50;0.90;;;0.80;;
1414;SDS011;702;49.466;11.086;2023-04-25T12:57:17;1.87;;;1.30;;
1414;SDS011;702;49.466;11.086;2023-04-25T12:59:45;1.13;;;1.03;;
1414;SDS011;702;49.466;11.086;2023-04-25T13:02:13;0.97;;;0.90;;
1414;SDS011;702;49.466;11.086;2023-04-25T13:04:41;1.30;;;1.10;;
1414;SDS011;702;49.466;11.086;2023-04-25T13:07:08;1.20;;;1.03;;
1414;SDS011;702;49.466;11.086;2023-04-25T13:09:36;1.90;;;1.10;;
1414;SDS011;702;49.466;11.086;2023-04-25T13:12:03;2.23;;;1.60;;
1414;SDS011;702;49.466;11.086;2023-04-25T13:14:31;1.70;;;1.40;;
1414;SDS011;702;49.466;11.086;2023-04-25T13:16:58;1.17;;;0.97;;
1414;SDS011;702;49.466;11.086;2023-04-25T13:19:26;1.17;;;0.90;;
1414;SDS011;702;49.466;11.086;2023-04-25T13:21:54;1.03;;;0.93;;
1414;SDS011;702;49.466;11.086;2023-04-25T13:24:21;1.47;;;1.23;;
1414;SDS011;702;49.466;11.086;2023-04-25T13:26:49;1.43;;;1.33;;
1414;SDS011;702;49.466;11.086;2023-04-25T13:29:16;1.50;;;1.30;;
1414;SDS011;702;49.466;11.086;2023-04-25T13:31:43;3.43;;;1.47;;
1414;SDS011;702;49.466;11.086;2023-04-25T13:34:10;2.50;;;1.30;;
1414;SDS011;702;49.466;11.086;2023-04-25T13:36:38;1.40;;;1.30;;
1414;SDS011;702;49.466;11.086;2023-04-25T13:39:07;1.70;;;1.60;;
1414;SDS011;702;49.466;11.086;2023-04-25T13:41:34;2.30;;;1.77;;
1414;SDS011;702;49.466;11.086;2023-04-25T13:44:02;1.43;;;1.27;;
1414;SDS011;702;49.466;11.086;2023-04-25T13:46:29;2.03;;;1.40;;
1414;SDS011;702;49.466;11.086;2023-04-25T13:48:57;2.60;;;1.40;;
1414;SDS011;702;49.466;11.086;2023-04-25T13:51:24;1.60;;;1.23;;
1414;SDS011;702;49.466;11.086;2023-04-25T13:53:51;1.13;;;1.03;;
1414;SDS011;702;49.466;11.086;2023-04-25T13:56:20;1.40;;;0.90;;
1414;SDS011;702;49.466;11.086;2023-04-25T13:58:48;1.67;;;1.57;;
1414;SDS011;702;49.466;11.086;2023-04-25T14:01:17;1.20;;;1.10;;
1414;SDS011;702;49.466;11.086;2023-04-25T14:03:45;1.80;;;1.33;;
1414;SDS011;702;49.466;11.086;2023-04-25T14:06:12;1.20;;;0.87;;
1414;SDS011;702;49.466;11.086;2023-04-25T14:08:46;1.10;;;0.90;;
1414;SDS011;702;49.466;11.086;2023-04-25T14:11:13;1.33;;;1.07;;
1414;SDS011;702;49.466;11.086;2023-04-25T14:13:45;2.50;;;1.37;;
1414;SDS011;702;49.466;11.086;2023-04-25T14:16:12;1.77;;;1.23;;
1414;SDS011;702;49.466;11.086;2023-04-25T14:18:40;2.50;;;1.27;;
1414;SDS011;702;49.466;11.086;2023-04-25T14:21:08;2.33;;;1.50;;
1414;SDS011;702;49.466;11.086;2023-04-25T14:23:36;2.27;;;1.50;;
1414;SDS011;702;49.466;11.086;2023-04-25T14:26:03;2.13;;;1.57;;
1414;SDS011;702;49.466;11.086;2023-04-25T14:28:31;2.20;;;1.47;;
1414;SDS011;702;49.466;11.086;2023-04-25T14:30:59;3.87;;;1.87;;
1414;SDS011;702;49.466;11.086;2023-04-25T14:33:26;1.93;;;1.60;;
1414;SDS011;702;49.466;11.086;2023-04-25T14:35:54;2.20;;;1.67;;
1414;SDS011;702;49.466;11.086;2023-04-25T14:38:21;2.70;;;2.10;;
1414;SDS011;702;49.466;11.086;2023-04-25T14:40:50;2.60;;;1.70;;
1414;SDS011;702;49.466;11.086;2023-04-25T14:43:19;1.67;;;1.50;;
1414;SDS011;702;49.466;11.086;2023-04-25T14:45:46;3.00;;;1.80;;
1414;SDS011;702;49.466;11.086;2023-04-25T14:48:15;2.73;;;1.60;;
1414;SDS011;702;49.466;11.086;2023-04-25T14:50:44;3.07;;;2.20;;
1414;SDS011;702;49.466;11.086;2023-04-25T14:53:12;1.93;;;1.40;;
1414;SDS011;702;49.466;11.086;2023-04-25T14:55:40;2.87;;;1.80;;
1414;SDS011;702;49.466;11.086;2023-04-25T14:58:08;2.17;;;1.70;;
1414;SDS011;702;49.466;11.086;2023-04-25T15:00:36;3.20;;;2.00;;
1414;SDS011;702;49.466;11.086;2023-04-25T15:03:03;2.00;;;1.47;;
1414;SDS011;702;49.466;11.086;2023-04-25T15:05:33;2.00;;;1.60;;
1414;SDS011;702;49.466;11.086;2023-04-25T15:08:01;2.00;;;1.80;;
1414;SDS011;702;49.466;11.086;2023-04-25T15:10:29;4.53;;;2.00;;
1414;SDS011;702;49.466;11.086;2023-04-25T15:12:56;2.37;;;1.70;;
1414;SDS011;702;49.466;11.086;2023-04-25T15:15:24;2.37;;;2.17;;
1414;SDS011;702;49.466;11.086;2023-04-25T15:17:51;3.37;;;1.77;;
1414;SDS011;702;49.466;11.086;2023-04-25T15:20:20;1.43;;;1.27;;
1414;SDS011;702;49.466;11.086;2023-04-25T15:22:49;3.17;;;2.17;;